SE-0006 weather

Alvesta Smålanda Airfield
Alvesta, Kronoberge län, Sweden

Public forecast

Using degrees Celsius for public forecast. Weather courtesy of forecast.io.

METAR (pilot weather report)

Closest report is Växjö Kronoberg Airport, 6.1 nm (11.3 km) E. Retrieved 2019/09/20 17:20 UTC (3 minutes ago):

ESMX 201720Z AUTO 26006KT 9999 SCT021/// OVC030/// 13/11 Q1019

TAF (pilot weather forecast)

Forecast is more than 12 hours old.

Closest forecast is Växjö Kronoberg Airport, 6.1 nm (11.3 km) E. Retrieved 2019/06/26 16:36 UTC (3 months ago):

TAF TAF ESMX 261530Z 2616/2724 30009KT 9999 SCT040TCU